Terminal Aerodrome Forecast
Issued by NWS Charleston, WV

Current Version | Previous Version | Text Only | Print | Product List | Glossary Off
Versions: 1 2 3 4 5 6 7 8 9 10 11 12 13 14 15 16 17 18 19 20 21

000
FTUS41 KRLX 250200 AAA
TAFEKN
TAF AMD
KEKN 250248Z 2503/2524 25007G20KT 6SM -FZDZSN BR OVC011
     FM250600 24007KT 4SM -SHSN BR OVC008
     FM251100 27004KT 6SM -SN BR BKN010
     FM251400 26004KT P6SM OVC015=

USA.gov is the U.S. government's official web portal to all federal, state and local government web resources and services.